Time;durP1;ratioP1;P1;durP2;ratioP2;P2;SDS_P1;SDS_P2;PMS_P1;PMS_P2;Temp;Humidity;BMP_temperature;BMP_pressure;BME280_temperature;BME280_humidity;BME280_pressure;Samples;Min_cycle;Max_cycle;Signal;HPM_P1;HPM_P2
2022/05/31 00:03:25;;;;;;;1.05;0.43;;;16.40;45.40;18.50;93398.00;;;;10276885;28;47316;-67
2022/05/31 00:08:48;;;;;;;0.70;0.30;;;16.40;45.40;18.40;93391.00;;;;10276102;28;45370;-67
2022/05/31 00:14:11;;;;;;;0.43;0.28;;;16.40;45.40;18.40;93403.00;;;;10276889;28;45929;-67
2022/05/31 00:19:31;;;;;;;0.80;0.45;;;16.40;45.40;18.40;93375.00;;;;10276160;28;45095;-67
2022/05/31 00:24:54;;;;;;;0.43;0.30;;;16.40;45.30;18.40;93382.00;;;;10276474;28;45102;-68
2022/05/31 00:30:16;;;;;;;0.80;0.50;;;16.40;45.40;18.40;93392.00;;;;10275375;28;45232;-67
2022/05/31 00:35:41;;;;;;;0.43;0.30;;;16.40;45.30;18.40;93388.00;;;;10276006;28;45817;-67
2022/05/31 00:41:25;;;;;;;1.08;0.50;;;16.40;45.40;18.40;93391.00;;;;10275907;28;45120;-68
2022/05/31 00:46:51;;;;;;;0.63;0.35;;;16.40;45.30;18.40;93383.00;;;;10273977;28;45224;-68
2022/05/31 00:52:17;;;;;;;0.85;0.43;;;16.40;45.30;18.40;93397.00;;;;10275599;28;45186;-68
2022/05/31 00:57:43;;;;;;;0.52;0.30;;;16.40;45.30;18.40;93385.00;;;;10274458;28;45869;-68
2022/05/31 01:03:05;;;;;;;0.35;0.30;;;16.40;45.20;18.40;93400.00;;;;10271391;28;45579;-67
2022/05/31 01:08:26;;;;;;;0.50;0.30;;;16.40;45.20;18.40;93394.00;;;;10274363;28;45214;-67
2022/05/31 01:13:48;;;;;;;0.30;0.20;;;16.30;45.20;18.40;93412.00;;;;10274970;28;45147;-68
2022/05/31 01:19:55;;;;;;;0.80;0.30;;;16.40;45.20;18.40;93416.00;;;;10274543;28;45315;-68
2022/05/31 01:24:57;;;;;;;0.57;0.30;;;16.30;45.20;18.40;93398.00;;;;10274431;28;45794;-67
2022/05/31 01:30:19;;;;;;;0.32;0.32;;;16.30;45.20;18.40;93402.00;;;;10295911;23;47074;-67
2022/05/31 01:35:40;;;;;;;0.70;0.35;;;16.40;45.20;18.40;93409.00;;;;10273129;28;45214;-67
2022/05/31 01:41:14;;;;;;;0.85;0.38;;;16.30;45.20;18.40;93408.00;;;;10272699;28;45197;-66
2022/05/31 01:46:36;;;;;;;0.65;0.40;;;16.30;45.20;18.40;93389.00;;;;10272710;28;45236;-67
2022/05/31 01:51:58;;;;;;;0.80;0.30;;;16.30;45.20;18.40;93394.00;;;;10272793;28;45308;-67
2022/05/31 01:57:23;;;;;;;0.35;0.25;;;16.30;45.20;18.40;93397.00;;;;10271759;28;45195;-67
2022/05/31 02:02:48;;;;;;;0.35;0.32;;;16.30;45.20;18.40;93393.00;;;;10272791;28;45854;-66
2022/05/31 02:08:08;;;;;;;1.52;0.50;;;16.30;45.10;18.40;93392.00;;;;10271623;28;45773;-67
2022/05/31 02:13:30;;;;;;;0.95;0.40;;;16.30;45.10;18.40;93394.00;;;;10272262;28;45141;-67
2022/05/31 02:24:30;;;;;;;1.05;0.50;;;16.30;45.10;18.30;93425.00;;;;10272077;28;45178;-67
2022/05/31 02:29:52;;;;;;;1.05;0.50;;;16.30;45.30;18.40;93431.00;;;;10270667;28;45210;-67
2022/05/31 02:35:13;;;;;;;1.33;0.47;;;16.30;45.20;18.30;93430.00;;;;10271885;28;45123;-66
2022/05/31 02:40:33;;;;;;;0.80;0.40;;;16.20;45.30;18.30;93431.00;;;;10271232;28;45182;-66
2022/05/31 02:45:55;;;;;;;1.70;0.38;;;16.30;45.30;18.30;93436.00;;;;10271112;28;45658;-67
2022/05/31 02:51:16;;;;;;;0.85;0.63;;;16.30;45.40;18.30;93418.00;;;;10270752;28;45161;-67
2022/05/31 02:56:36;;;;;;;0.95;0.40;;;16.30;45.40;18.30;93423.00;;;;10270333;28;45187;-66
2022/05/31 03:01:58;;;;;;;0.80;0.50;;;16.20;45.20;18.30;93414.00;;;;10270695;28;45792;-67
2022/05/31 03:07:19;;;;;;;1.10;0.50;;;16.30;45.30;18.30;93411.00;;;;10272782;28;45311;-67
2022/05/31 03:12:40;;;;;;;1.10;0.50;;;16.20;45.30;18.30;93410.00;;;;10277265;28;45690;-64
2022/05/31 03:18:07;;;;;;;1.20;0.52;;;16.30;45.40;18.30;93400.00;;;;10277063;28;45848;-65
2022/05/31 03:23:34;;;;;;;0.70;0.40;;;16.30;46.10;18.30;93416.00;;;;10277855;28;45103;-67
2022/05/31 03:28:54;;;;;;;0.93;0.40;;;16.30;45.40;18.30;93417.00;;;;10276354;28;45957;-66
2022/05/31 03:34:17;;;;;;;0.52;0.40;;;16.30;45.40;18.30;93413.00;;;;10277105;28;45265;-67
2022/05/31 03:39:38;;;;;;;0.60;0.40;;;16.20;45.30;18.30;93425.00;;;;10276419;28;45673;-67
2022/05/31 03:44:58;;;;;;;0.70;0.47;;;16.20;45.30;18.30;93425.00;;;;10276744;28;45770;-67
2022/05/31 03:50:20;;;;;;;1.48;0.50;;;16.20;45.30;18.30;93433.00;;;;10275892;28;45149;-67
2022/05/31 03:55:44;;;;;;;0.50;0.32;;;16.20;45.50;18.30;93426.00;;;;10276348;28;45166;-67
2022/05/31 04:01:05;;;;;;;0.60;0.45;;;16.20;45.40;18.30;93430.00;;;;10276101;28;45191;-67
2022/05/31 04:06:26;;;;;;;0.63;0.47;;;16.20;45.40;18.20;93433.00;;;;10275467;28;45849;-67
2022/05/31 04:11:47;;;;;;;0.50;0.40;;;16.20;45.50;18.30;93443.00;;;;10276146;28;45198;-66
2022/05/31 04:17:08;;;;;;;1.20;0.45;;;16.20;45.50;18.30;93439.00;;;;10275304;28;45258;-67
2022/05/31 04:22:30;;;;;;;0.93;0.50;;;16.20;45.50;18.20;93441.00;;;;10275393;28;45841;-67
2022/05/31 04:27:51;;;;;;;1.00;0.43;;;16.20;45.50;18.30;93439.00;;;;10274647;28;45114;-66
2022/05/31 04:33:12;;;;;;;0.70;0.30;;;16.20;45.50;18.30;93440.00;;;;10275277;28;45109;-67
2022/05/31 04:38:35;;;;;;;1.35;0.40;;;16.20;45.50;18.20;93444.00;;;;10274530;28;45175;-67
2022/05/31 04:43:58;;;;;;;1.00;0.40;;;16.20;45.50;18.20;93424.00;;;;10275161;28;45386;-67
2022/05/31 04:49:19;;;;;;;0.75;0.40;;;16.20;45.50;18.30;93436.00;;;;10273918;28;45444;-67
2022/05/31 04:54:40;;;;;;;1.38;0.47;;;16.20;45.60;18.20;93440.00;;;;10274690;28;45849;-67
2022/05/31 05:00:01;;;;;;;1.15;0.40;;;16.20;45.70;18.20;93445.00;;;;10273962;28;45351;-67
2022/05/31 05:05:21;;;;;;;0.55;0.55;;;16.20;46.30;18.20;93438.00;;;;10274473;28;45850;-68
2022/05/31 05:10:46;;;;;;;1.27;0.40;;;16.20;45.70;18.20;93447.00;;;;10274316;28;45463;-67
2022/05/31 05:16:09;;;;;;;0.98;0.43;;;16.20;45.70;18.20;93439.00;;;;10273933;28;45716;-67
2022/05/31 05:21:29;;;;;;;0.52;0.40;;;16.20;45.70;18.20;93443.00;;;;10273743;28;46133;-67
2022/05/31 05:26:51;;;;;;;0.60;0.40;;;16.20;45.80;18.20;93444.00;;;;10272745;28;45217;-67
2022/05/31 05:32:13;;;;;;;0.35;0.35;;;16.20;45.80;18.20;93450.00;;;;10272731;28;45763;-66
2022/05/31 05:37:33;;;;;;;0.70;0.40;;;16.20;45.80;18.20;93450.00;;;;10272563;28;45774;-67
2022/05/31 05:42:55;;;;;;;0.55;0.40;;;16.20;45.80;18.20;93446.00;;;;10273063;28;45095;-67
2022/05/31 05:48:16;;;;;;;0.40;0.40;;;16.20;45.90;18.20;93450.00;;;;10261905;28;45846;-66
2022/05/31 05:53:36;;;;;;;1.60;0.45;;;16.20;45.90;18.20;93441.00;;;;10244541;28;45558;-67
2022/05/31 05:58:58;;;;;;;0.70;0.45;;;16.20;46.00;18.20;93448.00;;;;10233060;28;45216;-66
2022/05/31 06:04:26;;;;;;;1.08;0.35;;;16.20;46.00;18.20;93443.00;;;;10233574;28;45186;-66
2022/05/31 06:09:54;;;;;;;0.68;0.30;;;16.20;46.10;18.20;93461.00;;;;10233257;28;45897;-67
2022/05/31 06:15:21;;;;;;;0.93;0.40;;;16.10;46.10;18.20;93460.00;;;;10233436;28;45102;-64
2022/05/31 06:20:46;;;;;;;1.27;0.50;;;16.20;46.00;18.30;93448.00;;;;10230898;28;45098;-63
2022/05/31 06:26:07;;;;;;;0.65;0.40;;;16.20;45.90;18.30;93467.00;;;;10231247;28;45201;-63
2022/05/31 06:31:29;;;;;;;1.02;0.40;;;16.20;45.80;18.30;93459.00;;;;10231298;28;45361;-64
2022/05/31 06:36:49;;;;;;;0.95;0.50;;;16.30;45.90;18.30;93462.00;;;;10231636;28;45808;-63
2022/05/31 06:42:11;;;;;;;0.93;0.50;;;16.20;45.80;18.30;93462.00;;;;10234018;28;45163;-63
2022/05/31 06:47:33;;;;;;;0.75;0.40;;;16.30;45.80;18.30;93462.00;;;;10237033;28;45979;-63
2022/05/31 06:58:33;;;;;;;1.25;0.57;;;16.30;45.90;18.30;93457.00;;;;10237609;28;45165;-63
2022/05/31 07:03:55;;;;;;;1.25;0.40;;;16.30;46.00;18.20;93464.00;;;;10238187;28;45342;-63
2022/05/31 07:09:15;;;;;;;1.48;0.60;;;16.20;46.10;18.30;93474.00;;;;10238177;28;45186;-64
2022/05/31 07:14:36;;;;;;;1.50;0.50;;;16.20;46.00;18.30;93453.00;;;;10237542;28;45706;-63
2022/05/31 07:19:58;;;;;;;1.05;0.47;;;16.20;46.10;18.30;93471.00;;;;10236897;28;45690;-63
2022/05/31 07:25:19;;;;;;;0.95;0.40;;;16.20;46.10;18.30;93451.00;;;;10237299;28;45845;-64
2022/05/31 07:30:40;;;;;;;1.25;0.50;;;16.30;46.20;18.30;93460.00;;;;10237129;28;45170;-65
2022/05/31 07:36:04;;;;;;;2.05;0.70;;;16.30;47.20;18.40;93464.00;;;;10236271;28;45245;-65
2022/05/31 07:41:24;;;;;;;2.00;0.57;;;16.30;47.00;18.40;93466.00;;;;10237031;28;45854;-65
2022/05/31 07:46:45;;;;;;;1.50;0.50;;;16.30;47.00;18.40;93459.00;;;;10235939;28;45275;-65
2022/05/31 07:52:10;;;;;;;1.42;0.52;;;16.30;47.30;18.30;93456.00;;;;10235372;28;45182;-65
2022/05/31 08:03:09;;;;;;;2.22;0.70;;;16.30;47.40;18.40;93469.00;;;;10236127;28;45805;-66
2022/05/31 08:08:31;;;;;;;3.70;0.60;;;16.30;47.10;18.40;93474.00;;;;10235637;28;45210;-65
2022/05/31 08:13:54;;;;;;;1.85;0.57;;;16.30;47.30;18.40;93465.00;;;;10236243;28;45650;-65
2022/05/31 08:19:15;;;;;;;1.25;0.40;;;16.30;47.30;18.40;93476.00;;;;10236174;28;45670;-66
2022/05/31 08:24:37;;;;;;;0.68;0.45;;;16.30;47.20;18.40;93479.00;;;;10236430;28;45094;-66
2022/05/31 08:29:58;;;;;;;2.22;0.50;;;16.30;47.20;18.40;93470.00;;;;10235862;28;45437;-65
2022/05/31 08:35:19;;;;;;;1.92;0.50;;;16.30;47.20;18.30;93460.00;;;;10236564;28;45790;-65
2022/05/31 08:41:00;;;;;;;2.13;0.52;;;16.30;47.20;18.40;93474.00;;;;10235804;28;45155;-66
2022/05/31 08:46:33;;;;;;;3.75;0.60;;;16.40;47.50;18.40;93448.00;;;;10235687;28;46141;-66
2022/05/31 08:52:04;;;;;;;2.45;0.50;;;16.30;47.30;18.40;93466.00;;;;10235490;28;45127;-66
2022/05/31 08:57:34;;;;;;;2.13;0.50;;;16.30;47.40;18.40;93456.00;;;;10234685;28;45104;-66
2022/05/31 09:02:59;;;;;;;2.72;0.60;;;16.30;47.30;18.30;93458.00;;;;10234782;28;45209;-66
2022/05/31 09:08:25;;;;;;;3.15;0.50;;;16.30;47.30;18.30;93458.00;;;;10250204;28;45241;-66
2022/05/31 09:13:54;;;;;;;1.55;0.70;;;16.30;47.30;18.30;93458.00;;;;10236830;28;45158;-66
2022/05/31 09:19:21;;;;;;;2.58;0.52;;;16.30;47.20;18.30;93459.00;;;;10253965;28;45331;-66
2022/05/31 09:24:44;;;;;;;0.45;0.30;;;16.30;47.20;18.30;93452.00;;;;10246239;28;45254;-66
2022/05/31 09:30:13;;;;;;;1.15;0.45;;;16.30;47.20;18.30;93459.00;;;;10257262;28;45278;-66
2022/05/31 09:35:57;;;;;;;1.83;0.57;;;16.20;47.20;18.40;93447.00;;;;10234321;28;45782;-64
2022/05/31 09:41:24;;;;;;;1.25;0.50;;;16.30;47.10;18.30;93456.00;;;;10233980;28;45157;-65
2022/05/31 09:46:52;;;;;;;1.95;0.55;;;16.30;47.00;18.30;93466.00;;;;10233690;28;46057;-64
2022/05/31 09:52:21;;;;;;;0.50;0.40;;;16.30;47.00;18.40;93465.00;;;;10233114;28;45666;-64
2022/05/31 09:57:42;;;;;;;1.67;0.50;;;16.40;47.60;18.50;93474.00;;;;10242837;28;45848;-65
2022/05/31 10:03:12;;;;;;;1.50;0.50;;;16.40;47.00;18.50;93468.00;;;;10273461;28;45741;-64
2022/05/31 10:08:35;;;;;;;0.73;0.40;;;16.40;47.00;18.50;93473.00;;;;10290419;28;45718;-63
2022/05/31 10:13:58;;;;;;;1.13;0.55;;;16.50;47.00;18.50;93475.00;;;;10263346;28;45282;-65
2022/05/31 10:19:27;;;;;;;0.85;0.50;;;16.50;47.00;18.60;93472.00;;;;10239553;28;45431;-65
2022/05/31 10:24:48;;;;;;;1.67;0.50;;;16.50;47.10;18.50;93464.00;;;;10240315;28;46110;-66
2022/05/31 10:30:16;;;;;;;1.13;0.40;;;16.50;46.90;18.50;93481.00;;;;10239539;28;45196;-65
2022/05/31 10:35:42;;;;;;;1.10;0.30;;;16.50;47.00;18.50;93477.00;;;;10239448;28;45198;-65
2022/05/31 10:41:06;;;;;;;0.85;0.40;;;16.50;47.00;18.50;93496.00;;;;10239052;28;45730;-65
2022/05/31 10:46:29;;;;;;;0.60;0.40;;;16.40;47.00;18.50;93498.00;;;;10239860;28;45401;-65
2022/05/31 10:52:09;;;;;;;1.63;0.57;;;16.40;46.90;18.50;93498.00;;;;10273474;28;45483;-65
2022/05/31 10:57:48;;;;;;;0.68;0.30;;;16.40;47.00;18.50;93503.00;;;;10261102;28;45302;-66
2022/05/31 11:03:40;;;;;;;0.52;0.30;;;16.40;47.00;18.50;93510.00;;;;10271174;28;45180;-65
2022/05/31 11:15:14;;;;;;;0.85;0.45;;;16.40;47.10;18.40;93528.00;;;;10264502;28;45338;-65
2022/05/31 11:20:46;;;;;;;0.45;0.22;;;16.40;47.10;18.40;93540.00;;;;10267197;28;45141;-66
2022/05/31 11:26:29;;;;;;;0.52;0.40;;;16.40;47.10;18.40;93550.00;;;;10277297;28;45112;-66
2022/05/31 11:31:58;;;;;;;0.35;0.30;;;16.40;47.00;18.40;93533.00;;;;10268041;28;45290;-65
2022/05/31 11:37:56;;;;;;;1.10;0.40;;;16.40;47.10;18.40;93528.00;;;;10278145;28;45219;-66
2022/05/31 11:44:08;;;;;;;0.70;0.35;;;16.40;47.00;18.50;93517.00;;;;10278260;28;45915;-66
2022/05/31 11:49:36;;;;;;;0.73;0.40;;;16.40;46.90;18.50;93499.00;;;;10277690;28;45233;-64
2022/05/31 11:55:29;;;;;;;5.20;0.60;;;16.50;47.00;18.60;93506.00;;;;10305297;28;45421;-64
2022/05/31 12:01:02;;;;;;;2.65;0.55;;;16.50;47.10;18.60;93505.00;;;;10313162;28;45210;-64
2022/05/31 12:06:35;;;;;;;2.50;0.70;;;16.60;46.90;18.60;93514.00;;;;10301537;28;45269;-62
2022/05/31 12:12:02;;;;;;;1.20;0.60;;;16.60;47.20;18.70;93504.00;;;;10304937;28;45659;-63
2022/05/31 12:17:37;;;;;;;6.68;0.98;;;16.60;47.10;18.70;93507.00;;;;10316731;28;45233;-64
2022/05/31 12:23:04;;;;;;;11.07;1.20;;;16.60;47.00;18.70;93493.00;;;;10316714;28;45134;-64
2022/05/31 12:28:31;;;;;;;9.60;1.40;;;16.60;47.10;18.60;93481.00;;;;10316594;28;45122;-64
2022/05/31 12:33:55;;;;;;;9.07;1.37;;;16.60;47.30;18.60;93484.00;;;;10317110;28;45195;-64
2022/05/31 12:39:27;;;;;;;4.25;0.80;;;16.60;47.30;18.60;93471.00;;;;10316450;28;45224;-64
2022/05/31 12:44:50;;;;;;;9.25;0.95;;;16.60;47.20;18.60;93486.00;;;;10316324;28;45122;-64
2022/05/31 12:50:14;;;;;;;8.70;0.90;;;16.60;47.30;18.60;93491.00;;;;10316134;28;45772;-65
2022/05/31 12:55:58;;;;;;;4.72;0.90;;;16.60;47.10;18.60;93499.00;;;;10316407;28;45158;-64
2022/05/31 13:02:00;;;;;;;4.10;0.70;;;16.60;47.20;18.70;93485.00;;;;10315683;28;45792;-65
2022/05/31 13:07:22;;;;;;;6.07;0.98;;;16.60;47.20;18.70;93483.00;;;;10189815;28;45105;-64
2022/05/31 13:24:13;;;;;;;2.65;0.60;;;16.60;47.20;18.70;93487.00;;;;10315077;28;45216;-65
2022/05/31 13:29:34;;;;;;;3.28;0.60;;;16.60;47.20;18.70;93466.00;;;;10356129;23;45223;-63
2022/05/31 13:34:55;;;;;;;2.63;0.50;;;16.60;47.20;18.60;93485.00;;;;10355889;28;45243;-63
2022/05/31 13:40:21;;;;;;;4.65;0.93;;;16.60;47.30;18.70;93483.00;;;;10354549;28;45149;-63
2022/05/31 13:45:42;;;;;;;3.22;0.70;;;16.60;47.30;18.70;93476.00;;;;10353912;28;45660;-62
2022/05/31 13:51:07;;;;;;;2.25;0.50;;;16.60;47.30;18.60;93477.00;;;;10341778;28;45303;-63
2022/05/31 13:56:30;;;;;;;1.45;0.45;;;16.60;47.40;18.60;93484.00;;;;10332093;28;45237;-63
2022/05/31 14:01:51;;;;;;;1.80;0.50;;;16.60;47.50;18.60;93477.00;;;;10320632;28;45177;-63
2022/05/31 14:07:18;;;;;;;1.95;0.70;;;16.60;47.50;18.60;93488.00;;;;10312524;28;45913;-63
2022/05/31 14:12:44;;;;;;;0.90;0.50;;;16.60;47.60;18.60;93476.00;;;;10312515;28;45148;-63
2022/05/31 14:18:09;;;;;;;1.30;0.50;;;16.50;47.50;18.60;93474.00;;;;10312417;28;45102;-63
2022/05/31 14:23:30;;;;;;;1.83;0.52;;;16.50;47.60;18.50;93482.00;;;;10312603;28;45155;-62
2022/05/31 14:29:15;;;;;;;3.55;0.70;;;16.50;47.60;18.50;93483.00;;;;10311471;28;45214;-60
2022/05/31 14:34:40;;;;;;;2.40;0.50;;;16.50;47.60;18.50;93468.00;;;;10312012;28;45123;-60
2022/05/31 14:40:06;;;;;;;2.92;1.00;;;16.50;47.60;18.60;93478.00;;;;10311872;28;45180;-63
2022/05/31 14:45:30;;;;;;;1.40;0.40;;;16.50;47.60;18.70;93472.00;;;;10320372;28;45208;-64
2022/05/31 14:50:56;;;;;;;1.02;0.50;;;16.60;47.60;18.70;93493.00;;;;10310980;28;45323;-61
2022/05/31 14:56:28;;;;;;;3.35;0.50;;;16.60;47.90;18.70;93495.00;;;;10326237;28;45177;-63
2022/05/31 15:01:53;;;;;;;2.90;0.47;;;16.60;47.80;18.70;93474.00;;;;10342410;28;45678;-61
2022/05/31 15:07:17;;;;;;;4.38;0.70;;;16.70;47.80;18.70;93484.00;;;;10319233;28;45128;-61
2022/05/31 15:24:04;;;;;;;1.73;0.43;;;16.70;48.00;18.70;93535.00;;;;10318414;28;45322;-60
2022/05/31 15:29:25;;;;;;;2.88;0.60;;;16.70;48.00;18.70;93533.00;;;;10317030;28;45185;-60
2022/05/31 15:34:48;;;;;;;2.17;0.57;;;16.70;48.00;18.80;93548.00;;;;10317668;28;45188;-59
2022/05/31 15:40:12;;;;;;;1.75;0.52;;;16.70;48.10;18.80;93563.00;;;;10317003;28;45184;-60
2022/05/31 15:45:33;;;;;;;2.28;0.50;;;16.70;48.10;18.80;93560.00;;;;10316959;28;45100;-59
2022/05/31 15:50:55;;;;;;;1.13;0.57;;;16.70;48.10;18.80;93574.00;;;;10316518;28;45867;-60
2022/05/31 15:56:16;;;;;;;1.20;0.50;;;16.80;48.20;18.80;93571.00;;;;10317222;28;45104;-61
2022/05/31 16:01:37;;;;;;;2.00;0.65;;;16.70;48.60;18.80;93578.00;;;;10321272;28;45844;-61
2022/05/31 16:06:59;;;;;;;1.90;0.52;;;16.80;48.60;18.80;93574.00;;;;10353391;28;45244;-57
2022/05/31 16:12:23;;;;;;;2.08;0.70;;;16.70;48.70;18.80;93561.00;;;;10356229;28;45409;-61
2022/05/31 16:17:45;;;;;;;6.03;0.50;;;16.70;48.60;18.80;93568.00;;;;10355889;28;45192;-61
2022/05/31 16:23:08;;;;;;;2.05;0.50;;;16.70;48.60;18.80;93579.00;;;;10357677;28;45181;-61
2022/05/31 16:28:29;;;;;;;1.98;0.40;;;16.70;48.80;18.80;93569.00;;;;10356833;28;45185;-61
2022/05/31 16:33:49;;;;;;;3.28;0.60;;;16.70;48.40;18.80;93581.00;;;;10346183;28;45808;-61
2022/05/31 16:44:50;;;;;;;0.98;0.43;;;16.70;48.60;18.70;93578.00;;;;10356170;28;46056;-61
2022/05/31 16:50:11;;;;;;;0.40;0.40;;;16.70;48.60;18.70;93578.00;;;;10352421;28;45779;-61
2022/05/31 16:55:33;;;;;;;3.35;0.60;;;16.60;48.70;18.70;93583.00;;;;10324497;28;45247;-62
2022/05/31 17:00:54;;;;;;;1.58;0.45;;;16.60;48.80;18.70;93589.00;;;;10352224;28;45678;-62
2022/05/31 17:14:22;;;;;;;1.55;0.57;;;16.70;48.60;18.70;93595.00;;;;10355291;28;45268;-62
2022/05/31 17:17:35;;;;;;;2.13;0.50;;;16.70;48.70;18.80;93594.00;;;;10375642;28;45834;-62
2022/05/31 17:23:00;;;;;;;0.95;0.40;;;16.70;48.60;18.80;93597.00;;;;10393347;28;45089;-62
2022/05/31 17:28:23;;;;;;;3.05;0.60;;;16.70;48.70;18.80;93601.00;;;;10367746;28;45253;-62
2022/05/31 17:33:44;;;;;;;1.17;0.47;;;16.70;48.60;18.80;93608.00;;;;10353809;28;45189;-61
2022/05/31 17:39:10;;;;;;;1.48;0.50;;;16.80;48.50;18.80;93616.00;;;;10353139;28;45222;-61
2022/05/31 17:44:32;;;;;;;0.47;0.30;;;16.80;48.60;18.80;93626.00;;;;10362476;28;45888;-61
2022/05/31 17:49:53;;;;;;;1.77;0.50;;;16.70;48.60;18.80;93622.00;;;;10355458;28;45761;-61
2022/05/31 17:55:14;;;;;;;0.55;0.30;;;16.70;48.70;18.70;93626.00;;;;10394312;28;45153;-61
2022/05/31 18:00:37;;;;;;;0.50;0.40;;;16.70;48.70;18.70;93619.00;;;;10394101;28;45119;-61
2022/05/31 18:05:57;;;;;;;0.68;0.30;;;16.60;48.70;18.70;93640.00;;;;10393926;28;45190;-61
2022/05/31 18:11:21;;;;;;;1.52;0.40;;;16.70;48.70;18.70;93641.00;;;;10393656;28;45090;-61
2022/05/31 18:16:43;;;;;;;0.40;0.28;;;16.60;48.80;18.70;93652.00;;;;10393263;28;45131;-61
2022/05/31 18:22:07;;;;;;;0.50;0.30;;;16.60;48.80;18.70;93648.00;;;;10393277;28;45203;-60
2022/05/31 18:27:27;;;;;;;0.85;0.43;;;16.60;48.80;18.70;93646.00;;;;10392570;28;45248;-61
2022/05/31 18:32:49;;;;;;;0.40;0.30;;;16.60;48.80;18.70;93654.00;;;;10393616;28;45122;-60
2022/05/31 18:43:48;;;;;;;1.02;0.40;;;16.60;48.80;18.60;93641.00;;;;10395530;28;45196;-61
2022/05/31 18:49:11;;;;;;;1.40;0.50;;;16.60;48.80;18.60;93663.00;;;;10399064;28;45123;-60
2022/05/31 18:54:31;;;;;;;0.82;0.50;;;16.60;48.80;18.60;93647.00;;;;10399953;28;45208;-60
2022/05/31 18:59:52;;;;;;;0.70;0.40;;;16.60;48.80;18.60;93663.00;;;;10399344;28;45251;-60
2022/05/31 19:05:19;;;;;;;0.60;0.40;;;16.50;48.70;18.60;93669.00;;;;10399478;28;45234;-60
2022/05/31 19:10:42;;;;;;;0.60;0.30;;;16.60;48.80;18.60;93658.00;;;;10399419;28;45424;-60
2022/05/31 19:16:05;;;;;;;0.77;0.47;;;16.50;48.70;18.60;93669.00;;;;10398841;28;45123;-60
2022/05/31 19:21:33;;;;;;;0.63;0.30;;;16.50;48.70;18.60;93672.00;;;;10396132;28;46143;-61
2022/05/31 19:26:53;;;;;;;0.50;0.40;;;16.50;48.70;18.60;93665.00;;;;10397228;28;45825;-60
2022/05/31 19:32:16;;;;;;;0.90;0.43;;;16.50;48.70;18.60;93682.00;;;;10398104;28;45222;-61
2022/05/31 19:37:38;;;;;;;1.40;0.50;;;16.50;49.30;18.50;93689.00;;;;10396316;28;45177;-61
2022/05/31 19:43:00;;;;;;;0.73;0.40;;;16.50;48.60;18.50;93693.00;;;;10397539;28;45115;-60
2022/05/31 19:48:21;;;;;;;0.60;0.45;;;16.50;48.70;18.60;93716.00;;;;10395823;28;45829;-60
2022/05/31 19:53:46;;;;;;;0.60;0.40;;;16.50;48.60;18.50;93709.00;;;;10397608;28;45670;-60
2022/05/31 19:59:07;;;;;;;0.93;0.40;;;16.50;48.70;18.50;93711.00;;;;10396245;28;45187;-61
2022/05/31 20:04:28;;;;;;;1.00;0.55;;;16.50;48.60;18.50;93728.00;;;;10396877;28;45686;-61
2022/05/31 20:10:05;;;;;;;1.13;0.40;;;16.40;48.60;18.50;93739.00;;;;10396627;28;45709;-60
2022/05/31 20:15:32;;;;;;;0.40;0.40;;;16.40;48.70;18.50;93727.00;;;;10396178;28;45111;-60
2022/05/31 20:21:09;;;;;;;0.40;0.33;;;16.40;48.70;18.50;93740.00;;;;10395909;28;45804;-60
2022/05/31 20:26:31;;;;;;;0.80;0.52;;;16.40;48.60;18.50;93750.00;;;;10395537;28;45143;-60
2022/05/31 20:31:51;;;;;;;0.60;0.40;;;16.40;48.70;18.40;93741.00;;;;10396267;28;45884;-61
2022/05/31 20:37:13;;;;;;;0.50;0.50;;;16.40;48.70;18.50;93753.00;;;;10395332;28;45181;-60
2022/05/31 20:42:39;;;;;;;0.45;0.30;;;16.40;48.60;18.40;93747.00;;;;10395430;28;45134;-61
2022/05/31 20:48:00;;;;;;;0.63;0.60;;;16.40;48.60;18.50;93749.00;;;;10394306;28;45179;-60
2022/05/31 20:53:28;;;;;;;0.88;0.40;;;16.40;48.60;18.40;93752.00;;;;10395281;28;45273;-61
2022/05/31 20:58:50;;;;;;;0.73;0.40;;;16.40;48.70;18.40;93755.00;;;;10393867;28;45748;-60
2022/05/31 21:04:11;;;;;;;0.68;0.40;;;16.40;48.70;18.40;93763.00;;;;10394593;28;45256;-60
2022/05/31 21:09:33;;;;;;;0.65;0.55;;;16.40;48.70;18.40;93770.00;;;;10393603;28;45205;-61
2022/05/31 21:14:55;;;;;;;0.50;0.50;;;16.40;48.70;18.40;93776.00;;;;10390315;28;45262;-61
2022/05/31 21:20:16;;;;;;;1.13;0.40;;;16.40;48.70;18.40;93774.00;;;;10391284;28;45241;-61
2022/05/31 21:25:39;;;;;;;0.43;0.40;;;16.40;48.70;18.40;93770.00;;;;10395110;28;45193;-61
2022/05/31 21:31:01;;;;;;;0.73;0.50;;;16.30;48.80;18.40;93766.00;;;;10394914;28;45840;-60
2022/05/31 21:36:22;;;;;;;0.75;0.55;;;16.30;48.80;18.40;93762.00;;;;10395373;28;44905;-60
2022/05/31 21:41:42;;;;;;;0.57;0.40;;;16.30;48.70;18.40;93769.00;;;;10395766;28;45199;-61
2022/05/31 21:47:06;;;;;;;0.70;0.43;;;16.30;48.80;18.40;93778.00;;;;10394752;28;45805;-61
2022/05/31 21:52:29;;;;;;;0.77;0.47;;;16.30;48.80;18.40;93777.00;;;;10394997;28;45114;-60
2022/05/31 21:57:50;;;;;;;0.63;0.50;;;16.30;48.90;18.30;93775.00;;;;10394489;28;45194;-60
2022/05/31 22:03:12;;;;;;;0.75;0.45;;;16.30;48.70;18.30;93779.00;;;;10394780;28;45161;-59
2022/05/31 22:08:33;;;;;;;0.60;0.35;;;16.30;48.90;18.30;93782.00;;;;10393760;28;45782;-60
2022/05/31 22:13:54;;;;;;;1.30;0.60;;;16.30;48.90;18.30;93794.00;;;;10394139;28;45213;-60
2022/05/31 22:19:16;;;;;;;0.82;0.50;;;16.30;48.90;18.30;93788.00;;;;10394422;28;46062;-61
2022/05/31 22:30:31;;;;;;;0.45;0.30;;;16.30;48.90;18.30;93789.00;;;;10364800;28;45206;-60
2022/05/31 22:35:56;;;;;;;0.45;0.45;;;16.30;48.80;18.30;93806.00;;;;10393491;28;45217;-60
2022/05/31 22:41:22;;;;;;;0.80;0.50;;;16.20;48.80;18.30;93798.00;;;;10393712;28;45310;-60
2022/05/31 22:46:45;;;;;;;1.48;0.52;;;16.20;48.80;18.30;93813.00;;;;10393173;28;45741;-61
2022/05/31 22:52:07;;;;;;;1.15;0.40;;;16.20;48.90;18.30;93805.00;;;;10393794;28;45266;-61
2022/05/31 22:57:29;;;;;;;0.60;0.50;;;16.20;48.90;18.30;93812.00;;;;10392959;28;45111;-60
2022/05/31 23:02:52;;;;;;;0.73;0.60;;;16.20;48.80;18.30;93807.00;;;;10393052;28;45290;-60
2022/05/31 23:08:15;;;;;;;0.88;0.57;;;16.20;48.90;18.30;93798.00;;;;10392876;28;45162;-61
2022/05/31 23:13:35;;;;;;;0.60;0.40;;;16.20;48.80;18.30;93799.00;;;;10393117;28;45181;-60
2022/05/31 23:18:56;;;;;;;0.57;0.40;;;16.20;48.90;18.20;93785.00;;;;10392811;28;45295;-60
2022/05/31 23:24:20;;;;;;;0.93;0.43;;;16.20;48.90;18.30;93793.00;;;;10395594;28;45651;-60
2022/05/31 23:29:40;;;;;;;0.40;0.40;;;16.20;48.90;18.30;93800.00;;;;10398754;28;45667;-60
2022/05/31 23:35:06;;;;;;;0.60;0.32;;;16.20;48.90;18.20;93795.00;;;;10399962;28;45316;-61
2022/05/31 23:40:28;;;;;;;1.27;0.50;;;16.20;49.00;18.30;93800.00;;;;10399118;28;45138;-60
2022/05/31 23:45:48;;;;;;;0.68;0.50;;;16.20;49.00;18.20;93802.00;;;;10398626;28;45170;-60
2022/05/31 23:51:10;;;;;;;0.75;0.50;;;16.20;48.90;18.20;93785.00;;;;10398440;28;45771;-60
2022/05/31 23:56:32;;;;;;;0.63;0.50;;;16.20;49.00;18.20;93791.00;;;;10398234;28;45277;-60
